sensor_id;sensor_type;location;lat;lon;timestamp;pressure;altitude;pressure_sealevel;temperature;humidity
3544;BME280;1786;52.870;9.578;2022-08-01T00:00:04;100361.47;;;27.36;71.76
3544;BME280;1786;52.870;9.578;2022-08-01T00:02:38;100367.13;;;27.35;71.67
3544;BME280;1786;52.870;9.578;2022-08-01T00:05:06;100361.56;;;27.75;70.63
3544;BME280;1786;52.870;9.578;2022-08-01T00:07:34;100366.69;;;27.31;71.76
3544;BME280;1786;52.870;9.578;2022-08-01T00:10:02;100364.81;;;27.38;72.19
3544;BME280;1786;52.870;9.578;2022-08-01T00:12:29;100361.88;;;27.40;71.72
3544;BME280;1786;52.870;9.578;2022-08-01T00:14:56;100382.59;;;27.28;72.50
3544;BME280;1786;52.870;9.578;2022-08-01T00:17:23;100375.13;;;27.75;70.56
3544;BME280;1786;52.870;9.578;2022-08-01T00:19:49;100379.25;;;27.97;70.51
3544;BME280;1786;52.870;9.578;2022-08-01T00:22:16;100377.19;;;27.86;69.99
3544;BME280;1786;52.870;9.578;2022-08-01T00:24:43;100381.53;;;28.32;68.98
3544;BME280;1786;52.870;9.578;2022-08-01T00:27:10;100386.94;;;28.39;68.68
3544;BME280;1786;52.870;9.578;2022-08-01T00:29:37;100381.84;;;28.56;68.51
3544;BME280;1786;52.870;9.578;2022-08-01T00:32:24;100381.84;;;28.56;67.90
3544;BME280;1786;52.870;9.578;2022-08-01T00:34:51;100378.91;;;28.19;69.42
3544;BME280;1786;52.870;9.578;2022-08-01T00:37:17;100377.53;;;28.35;67.69
3544;BME280;1786;52.870;9.578;2022-08-01T00:39:44;100379.88;;;28.31;67.90
3544;BME280;1786;52.870;9.578;2022-08-01T00:42:11;100370.38;;;28.47;68.08
3544;BME280;1786;52.870;9.578;2022-08-01T00:44:39;100382.19;;;28.66;67.11
3544;BME280;1786;52.870;9.578;2022-08-01T00:47:07;100378.72;;;28.77;67.55
3544;BME280;1786;52.870;9.578;2022-08-01T00:49:34;100382.00;;;28.61;67.61
3544;BME280;1786;52.870;9.578;2022-08-01T00:52:03;100374.97;;;28.78;67.33
3544;BME280;1786;52.870;9.578;2022-08-01T00:54:32;100376.31;;;28.87;66.64
3544;BME280;1786;52.870;9.578;2022-08-01T00:56:59;100377.00;;;28.58;67.67
3544;BME280;1786;52.870;9.578;2022-08-01T00:59:26;100386.06;;;28.45;67.74
3544;BME280;1786;52.870;9.578;2022-08-01T01:01:54;100378.97;;;28.37;68.51
3544;BME280;1786;52.870;9.578;2022-08-01T01:04:22;100394.59;;;28.80;67.18
3544;BME280;1786;52.870;9.578;2022-08-01T01:07:28;100388.41;;;28.73;67.20
3544;BME280;1786;52.870;9.578;2022-08-01T01:10:03;100381.13;;;28.35;68.00
3544;BME280;1786;52.870;9.578;2022-08-01T01:12:44;100381.19;;;28.22;68.31
3544;BME280;1786;52.870;9.578;2022-08-01T01:15:31;100387.72;;;28.53;67.40
3544;BME280;1786;52.870;9.578;2022-08-01T01:18:12;100386.94;;;28.45;67.15
3544;BME280;1786;52.870;9.578;2022-08-01T01:20:44;100389.75;;;28.25;67.88
3544;BME280;1786;52.870;9.578;2022-08-01T01:23:40;100386.31;;;28.37;67.46
3544;BME280;1786;52.870;9.578;2022-08-01T01:29:11;100388.34;;;28.10;68.11
3544;BME280;1786;52.870;9.578;2022-08-01T01:31:48;100393.41;;;28.06;68.35
3544;BME280;1786;52.870;9.578;2022-08-01T01:34:18;100388.34;;;28.10;67.92
3544;BME280;1786;52.870;9.578;2022-08-01T01:36:47;100394.53;;;27.78;68.77
3544;BME280;1786;52.870;9.578;2022-08-01T01:39:15;100397.22;;;27.92;68.71
3544;BME280;1786;52.870;9.578;2022-08-01T01:41:43;100399.28;;;28.03;68.34
3544;BME280;1786;52.870;9.578;2022-08-01T01:44:13;100409.38;;;27.76;68.87
3544;BME280;1786;52.870;9.578;2022-08-01T01:46:40;100406.66;;;27.69;68.94
3544;BME280;1786;52.870;9.578;2022-08-01T01:49:08;100404.38;;;27.73;68.78
3544;BME280;1786;52.870;9.578;2022-08-01T01:51:38;100405.69;;;27.50;69.28
3544;BME280;1786;52.870;9.578;2022-08-01T01:54:06;100399.00;;;27.53;69.01
3544;BME280;1786;52.870;9.578;2022-08-01T01:56:35;100403.56;;;27.66;69.16
3544;BME280;1786;52.870;9.578;2022-08-01T01:59:24;100408.44;;;27.37;69.40
3544;BME280;1786;52.870;9.578;2022-08-01T02:01:53;100403.13;;;27.69;68.51
3544;BME280;1786;52.870;9.578;2022-08-01T02:04:34;100405.97;;;28.00;67.84
3544;BME280;1786;52.870;9.578;2022-08-01T02:07:02;100411.28;;;27.69;68.97
3544;BME280;1786;52.870;9.578;2022-08-01T02:09:30;100410.25;;;27.70;68.76
3544;BME280;1786;52.870;9.578;2022-08-01T02:11:59;100415.00;;;27.88;68.46
3544;BME280;1786;52.870;9.578;2022-08-01T02:14:37;100419.38;;;27.95;67.94
3544;BME280;1786;52.870;9.578;2022-08-01T02:17:08;100418.16;;;27.85;68.53
3544;BME280;1786;52.870;9.578;2022-08-01T02:19:37;100416.13;;;27.60;69.00
3544;BME280;1786;52.870;9.578;2022-08-01T02:22:08;100413.97;;;27.75;68.46
3544;BME280;1786;52.870;9.578;2022-08-01T02:24:49;100413.16;;;27.61;68.67
3544;BME280;1786;52.870;9.578;2022-08-01T02:27:27;100408.88;;;27.99;68.05
3544;BME280;1786;52.870;9.578;2022-08-01T02:30:00;100413.34;;;27.73;68.35
3544;BME280;1786;52.870;9.578;2022-08-01T02:32:36;100424.16;;;28.00;67.78
3544;BME280;1786;52.870;9.578;2022-08-01T02:35:07;100426.09;;;27.66;68.85
3544;BME280;1786;52.870;9.578;2022-08-01T02:37:37;100422.13;;;27.75;68.21
3544;BME280;1786;52.870;9.578;2022-08-01T02:40:12;100420.41;;;27.94;67.80
3544;BME280;1786;52.870;9.578;2022-08-01T02:42:43;100416.41;;;28.03;67.71
3544;BME280;1786;52.870;9.578;2022-08-01T02:45:12;100424.34;;;28.05;67.46
3544;BME280;1786;52.870;9.578;2022-08-01T02:47:40;100417.53;;;27.82;68.25
3544;BME280;1786;52.870;9.578;2022-08-01T02:50:10;100418.75;;;27.87;67.50
3544;BME280;1786;52.870;9.578;2022-08-01T02:52:40;100429.50;;;27.55;68.80
3544;BME280;1786;52.870;9.578;2022-08-01T02:55:09;100432.56;;;27.72;67.86
3544;BME280;1786;52.870;9.578;2022-08-01T02:57:37;100428.97;;;27.91;67.88
3544;BME280;1786;52.870;9.578;2022-08-01T03:00:23;100439.88;;;27.78;68.03
3544;BME280;1786;52.870;9.578;2022-08-01T03:02:52;100429.00;;;27.78;68.24
3544;BME280;1786;52.870;9.578;2022-08-01T03:05:22;100436.31;;;27.84;67.71
3544;BME280;1786;52.870;9.578;2022-08-01T03:07:51;100426.16;;;27.59;68.46
3544;BME280;1786;52.870;9.578;2022-08-01T03:10:20;100434.13;;;27.34;69.06
3544;BME280;1786;52.870;9.578;2022-08-01T03:12:49;100437.00;;;27.59;68.10
3544;BME280;1786;52.870;9.578;2022-08-01T03:15:17;100432.78;;;27.70;67.80
3544;BME280;1786;52.870;9.578;2022-08-01T03:17:46;100432.97;;;27.75;68.01
3544;BME280;1786;52.870;9.578;2022-08-01T03:20:16;100429.00;;;27.78;67.97
3544;BME280;1786;52.870;9.578;2022-08-01T03:22:44;100438.66;;;27.67;68.47
3544;BME280;1786;52.870;9.578;2022-08-01T03:25:13;100443.91;;;27.49;69.17
3544;BME280;1786;52.870;9.578;2022-08-01T03:27:42;100449.34;;;27.15;69.33
3544;BME280;1786;52.870;9.578;2022-08-01T03:30:10;100445.59;;;26.90;70.31
3544;BME280;1786;52.870;9.578;2022-08-01T03:32:38;100445.97;;;26.73;70.52
3544;BME280;1786;52.870;9.578;2022-08-01T03:35:05;100449.13;;;27.10;69.66
3544;BME280;1786;52.870;9.578;2022-08-01T03:37:52;100453.28;;;27.06;69.35
3544;BME280;1786;52.870;9.578;2022-08-01T03:40:49;100462.28;;;27.13;69.18
3544;BME280;1786;52.870;9.578;2022-08-01T03:43:38;100464.56;;;26.83;69.57
3544;BME280;1786;52.870;9.578;2022-08-01T03:46:12;100455.38;;;26.64;70.26
3544;BME280;1786;52.870;9.578;2022-08-01T03:48:43;100464.47;;;26.50;70.69
3544;BME280;1786;52.870;9.578;2022-08-01T03:51:12;100463.72;;;26.83;69.97
3544;BME280;1786;52.870;9.578;2022-08-01T03:53:41;100471.66;;;26.77;69.70
3544;BME280;1786;52.870;9.578;2022-08-01T03:56:09;100467.09;;;26.91;69.65
3544;BME280;1786;52.870;9.578;2022-08-01T03:58:39;100468.31;;;27.15;68.62
3544;BME280;1786;52.870;9.578;2022-08-01T04:01:06;100466.66;;;27.01;68.83
3544;BME280;1786;52.870;9.578;2022-08-01T04:03:42;100473.50;;;26.84;69.49
3544;BME280;1786;52.870;9.578;2022-08-01T04:06:09;100460.41;;;27.07;68.82
3544;BME280;1786;52.870;9.578;2022-08-01T04:08:37;100476.69;;;26.94;69.53
3544;BME280;1786;52.870;9.578;2022-08-01T04:11:04;100477.06;;;26.91;69.71
3544;BME280;1786;52.870;9.578;2022-08-01T04:13:31;100479.38;;;27.14;68.72
3544;BME280;1786;52.870;9.578;2022-08-01T04:16:04;100483.97;;;27.13;68.61
3544;BME280;1786;52.870;9.578;2022-08-01T04:18:30;100488.81;;;27.25;68.57
3544;BME280;1786;52.870;9.578;2022-08-01T04:20:58;100484.19;;;27.05;69.52
3544;BME280;1786;52.870;9.578;2022-08-01T04:23:25;100489.19;;;27.08;69.26
3544;BME280;1786;52.870;9.578;2022-08-01T04:25:54;100496.31;;;27.09;69.21
3544;BME280;1786;52.870;9.578;2022-08-01T04:28:22;100498.41;;;27.34;68.53
3544;BME280;1786;52.870;9.578;2022-08-01T04:30:50;100497.97;;;27.17;68.82
3544;BME280;1786;52.870;9.578;2022-08-01T04:33:18;100503.19;;;27.18;68.50
3544;BME280;1786;52.870;9.578;2022-08-01T04:35:47;100505.06;;;26.91;69.71
3544;BME280;1786;52.870;9.578;2022-08-01T04:38:32;100501.28;;;26.92;70.01
3544;BME280;1786;52.870;9.578;2022-08-01T04:41:00;100513.00;;;27.59;68.00
3544;BME280;1786;52.870;9.578;2022-08-01T04:43:38;100517.63;;;27.52;67.60
3544;BME280;1786;52.870;9.578;2022-08-01T04:46:06;100504.88;;;27.19;68.09
3544;BME280;1786;52.870;9.578;2022-08-01T04:48:36;100512.97;;;26.93;68.64
3544;BME280;1786;52.870;9.578;2022-08-01T04:51:03;100518.88;;;27.30;68.42
3544;BME280;1786;52.870;9.578;2022-08-01T04:53:30;100518.44;;;27.33;68.33
3544;BME280;1786;52.870;9.578;2022-08-01T04:55:58;100520.09;;;27.54;67.24
3544;BME280;1786;52.870;9.578;2022-08-01T04:58:25;100521.13;;;27.66;66.91
3544;BME280;1786;52.870;9.578;2022-08-01T05:00:51;100531.16;;;27.72;66.34
3544;BME280;1786;52.870;9.578;2022-08-01T05:03:18;100528.44;;;27.59;67.33
3544;BME280;1786;52.870;9.578;2022-08-01T05:05:45;100522.19;;;27.38;67.53
3544;BME280;1786;52.870;9.578;2022-08-01T05:08:11;100530.56;;;27.30;67.30
3544;BME280;1786;52.870;9.578;2022-08-01T05:10:38;100528.44;;;27.39;67.51
3544;BME280;1786;52.870;9.578;2022-08-01T05:13:05;100534.31;;;27.56;66.90
3544;BME280;1786;52.870;9.578;2022-08-01T05:15:34;100535.13;;;27.83;66.38
3544;BME280;1786;52.870;9.578;2022-08-01T05:18:03;100543.06;;;27.71;66.87
3544;BME280;1786;52.870;9.578;2022-08-01T05:20:29;100546.63;;;27.85;66.49
3544;BME280;1786;52.870;9.578;2022-08-01T05:22:56;100548.72;;;27.70;66.67
3544;BME280;1786;52.870;9.578;2022-08-01T05:25:24;100551.00;;;27.86;66.40
3544;BME280;1786;52.870;9.578;2022-08-01T05:28:11;100553.09;;;27.84;66.67
3544;BME280;1786;52.870;9.578;2022-08-01T05:30:44;100555.19;;;27.62;67.04
3544;BME280;1786;52.870;9.578;2022-08-01T05:33:11;100553.50;;;27.61;66.65
3544;BME280;1786;52.870;9.578;2022-08-01T05:35:37;100566.47;;;27.46;67.60
3544;BME280;1786;52.870;9.578;2022-08-01T05:38:14;100566.47;;;27.52;66.64
3544;BME280;1786;52.870;9.578;2022-08-01T05:40:41;100553.44;;;27.01;68.06
3544;BME280;1786;52.870;9.578;2022-08-01T05:43:07;100548.00;;;27.01;68.62
3544;BME280;1786;52.870;9.578;2022-08-01T05:45:34;100552.03;;;27.58;67.24
3544;BME280;1786;52.870;9.578;2022-08-01T05:48:01;100556.44;;;27.86;66.90
3544;BME280;1786;52.870;9.578;2022-08-01T05:50:27;100560.38;;;28.10;66.90
3544;BME280;1786;52.870;9.578;2022-08-01T05:52:54;100558.13;;;27.87;66.43
3544;BME280;1786;52.870;9.578;2022-08-01T05:55:21;100551.06;;;28.38;65.57
3544;BME280;1786;52.870;9.578;2022-08-01T05:57:48;100564.78;;;28.63;65.23
3544;BME280;1786;52.870;9.578;2022-08-01T06:00:15;100565.16;;;28.73;64.08
3544;BME280;1786;52.870;9.578;2022-08-01T06:02:42;100566.09;;;28.92;64.05
3544;BME280;1786;52.870;9.578;2022-08-01T06:05:10;100565.81;;;29.07;63.96
3544;BME280;1786;52.870;9.578;2022-08-01T06:07:39;100566.44;;;29.02;62.96
3544;BME280;1786;52.870;9.578;2022-08-01T06:10:07;100570.72;;;28.85;63.75
3544;BME280;1786;52.870;9.578;2022-08-01T06:12:34;100575.44;;;29.09;63.00
3544;BME280;1786;52.870;9.578;2022-08-01T06:15:02;100577.78;;;29.06;63.82
3544;BME280;1786;52.870;9.578;2022-08-01T06:17:29;100575.25;;;28.59;64.20
3544;BME280;1786;52.870;9.578;2022-08-01T06:19:56;100580.31;;;28.56;64.71
3544;BME280;1786;52.870;9.578;2022-08-01T06:22:23;100584.09;;;28.41;64.75
3544;BME280;1786;52.870;9.578;2022-08-01T06:24:51;100591.91;;;28.04;65.86
3544;BME280;1786;52.870;9.578;2022-08-01T06:27:18;100591.09;;;27.84;66.66
3544;BME280;1786;52.870;9.578;2022-08-01T06:29:48;100592.56;;;27.53;66.99
3544;BME280;1786;52.870;9.578;2022-08-01T06:32:20;100596.72;;;27.29;67.38
3544;BME280;1786;52.870;9.578;2022-08-01T06:34:53;100601.50;;;27.21;68.02
3544;BME280;1786;52.870;9.578;2022-08-01T06:37:20;100600.69;;;27.20;68.13
3544;BME280;1786;52.870;9.578;2022-08-01T06:39:48;100602.59;;;26.71;68.82
3544;BME280;1786;52.870;9.578;2022-08-01T06:42:15;100596.06;;;27.21;67.93
3544;BME280;1786;52.870;9.578;2022-08-01T06:44:42;100602.31;;;27.14;67.58
3544;BME280;1786;52.870;9.578;2022-08-01T06:47:08;100609.91;;;27.52;67.56
3544;BME280;1786;52.870;9.578;2022-08-01T06:49:35;100617.78;;;29.30;61.43
3544;BME280;1786;52.870;9.578;2022-08-01T06:52:02;100634.53;;;30.53;58.27
3544;BME280;1786;52.870;9.578;2022-08-01T06:54:30;100631.59;;;30.54;57.51
3544;BME280;1786;52.870;9.578;2022-08-01T06:56:57;100638.84;;;30.60;57.48
3544;BME280;1786;52.870;9.578;2022-08-01T06:59:23;100636.41;;;28.30;63.71
3544;BME280;1786;52.870;9.578;2022-08-01T07:01:50;100621.78;;;27.25;65.77
3544;BME280;1786;52.870;9.578;2022-08-01T07:04:17;100623.16;;;27.07;66.90
3544;BME280;1786;52.870;9.578;2022-08-01T07:06:44;100621.47;;;27.00;67.06
3544;BME280;1786;52.870;9.578;2022-08-01T07:09:10;100619.03;;;27.18;66.98
3544;BME280;1786;52.870;9.578;2022-08-01T07:11:40;100617.41;;;27.37;66.97
3544;BME280;1786;52.870;9.578;2022-08-01T07:14:07;100619.50;;;27.48;66.60
3544;BME280;1786;52.870;9.578;2022-08-01T07:16:34;100618.66;;;27.61;66.60
3544;BME280;1786;52.870;9.578;2022-08-01T07:19:01;100624.53;;;27.65;66.35
3544;BME280;1786;52.870;9.578;2022-08-01T07:21:27;100628.25;;;27.44;66.64
3544;BME280;1786;52.870;9.578;2022-08-01T07:24:12;100624.53;;;27.78;64.92
3544;BME280;1786;52.870;9.578;2022-08-01T07:26:46;100634.56;;;27.97;65.61
3544;BME280;1786;52.870;9.578;2022-08-01T07:29:26;100639.94;;;28.24;64.37
3544;BME280;1786;52.870;9.578;2022-08-01T07:41:34;100652.53;;;27.92;64.35
3544;BME280;1786;52.870;9.578;2022-08-01T07:44:21;100651.50;;;27.86;64.48
3544;BME280;1786;52.870;9.578;2022-08-01T07:46:48;100645.81;;;27.81;64.82
3544;BME280;1786;52.870;9.578;2022-08-01T07:49:14;100655.44;;;28.23;64.13
3544;BME280;1786;52.870;9.578;2022-08-01T07:51:41;100662.78;;;27.90;64.61
3544;BME280;1786;52.870;9.578;2022-08-01T07:54:28;100660.63;;;27.58;64.51
3544;BME280;1786;52.870;9.578;2022-08-01T07:57:00;100661.56;;;27.17;64.95
3544;BME280;1786;52.870;9.578;2022-08-01T07:59:27;100665.09;;;27.05;64.70
3544;BME280;1786;52.870;9.578;2022-08-01T08:01:54;100674.84;;;26.92;65.35
3544;BME280;1786;52.870;9.578;2022-08-01T08:04:21;100686.06;;;29.29;59.77
3544;BME280;1786;52.870;9.578;2022-08-01T08:06:47;100685.25;;;29.92;56.73
3544;BME280;1786;52.870;9.578;2022-08-01T08:09:15;100692.34;;;29.29;58.09
3544;BME280;1786;52.870;9.578;2022-08-01T08:11:46;100687.88;;;29.73;57.04
3544;BME280;1786;52.870;9.578;2022-08-01T08:14:14;100699.63;;;30.68;55.48
3544;BME280;1786;52.870;9.578;2022-08-01T08:16:42;100701.88;;;31.56;53.92
3544;BME280;1786;52.870;9.578;2022-08-01T08:19:09;100700.84;;;31.69;53.65
3544;BME280;1786;52.870;9.578;2022-08-01T08:21:36;100699.69;;;31.46;54.05
3544;BME280;1786;52.870;9.578;2022-08-01T08:24:04;100699.22;;;31.91;53.52
3544;BME280;1786;52.870;9.578;2022-08-01T08:26:57;100708.88;;;32.18;52.83
3544;BME280;1786;52.870;9.578;2022-08-01T08:29:25;100701.63;;;32.47;51.73
3544;BME280;1786;52.870;9.578;2022-08-01T08:31:53;100718.63;;;32.61;50.90
3544;BME280;1786;52.870;9.578;2022-08-01T08:34:23;100708.75;;;29.09;57.54
3544;BME280;1786;52.870;9.578;2022-08-01T08:36:50;100700.97;;;28.41;60.11
3544;BME280;1786;52.870;9.578;2022-08-01T08:39:17;100710.97;;;28.74;60.59
3544;BME280;1786;52.870;9.578;2022-08-01T08:41:46;100707.47;;;28.40;60.12
3544;BME280;1786;52.870;9.578;2022-08-01T08:44:16;100710.19;;;28.20;60.49
3544;BME280;1786;52.870;9.578;2022-08-01T08:46:48;100725.66;;;28.26;60.43
3544;BME280;1786;52.870;9.578;2022-08-01T08:49:23;100713.94;;;27.99;61.68
3544;BME280;1786;52.870;9.578;2022-08-01T08:51:52;100726.91;;;27.84;61.80
3544;BME280;1786;52.870;9.578;2022-08-01T08:54:21;100729.84;;;28.22;61.13
3544;BME280;1786;52.870;9.578;2022-08-01T08:56:58;100735.50;;;28.08;60.26
3544;BME280;1786;52.870;9.578;2022-08-01T08:59:25;100734.88;;;27.92;61.40
3544;BME280;1786;52.870;9.578;2022-08-01T09:01:53;100737.38;;;28.00;60.31
3544;BME280;1786;52.870;9.578;2022-08-01T09:04:23;100738.41;;;28.06;60.21
3544;BME280;1786;52.870;9.578;2022-08-01T09:06:52;100739.44;;;28.38;60.40
3544;BME280;1786;52.870;9.578;2022-08-01T09:09:19;100742.38;;;27.83;60.43
3544;BME280;1786;52.870;9.578;2022-08-01T09:11:45;100742.81;;;27.87;59.46
3544;BME280;1786;52.870;9.578;2022-08-01T09:14:24;100746.16;;;28.16;59.70
3544;BME280;1786;52.870;9.578;2022-08-01T09:17:04;100762.44;;;28.42;59.81
3544;BME280;1786;52.870;9.578;2022-08-01T09:19:41;100764.91;;;28.90;59.31
3544;BME280;1786;52.870;9.578;2022-08-01T09:22:12;100761.19;;;28.12;59.41
3544;BME280;1786;52.870;9.578;2022-08-01T09:24:40;100766.63;;;28.32;58.24
3544;BME280;1786;52.870;9.578;2022-08-01T09:27:21;100774.97;;;28.83;58.96
3544;BME280;1786;52.870;9.578;2022-08-01T09:29:52;100786.28;;;28.67;57.81
3544;BME280;1786;52.870;9.578;2022-08-01T09:32:30;100790.59;;;29.21;57.65
3544;BME280;1786;52.870;9.578;2022-08-01T09:35:27;100789.91;;;29.32;57.07
3544;BME280;1786;52.870;9.578;2022-08-01T09:38:19;100802.09;;;29.23;56.18
3544;BME280;1786;52.870;9.578;2022-08-01T09:40:57;100801.50;;;29.66;55.96
3544;BME280;1786;52.870;9.578;2022-08-01T09:43:27;100804.41;;;30.35;55.82
3544;BME280;1786;52.870;9.578;2022-08-01T09:45:55;100805.91;;;30.99;54.75
3544;BME280;1786;52.870;9.578;2022-08-01T09:48:23;100809.19;;;30.65;52.77
3544;BME280;1786;52.870;9.578;2022-08-01T09:50:55;100813.88;;;31.56;52.39
3544;BME280;1786;52.870;9.578;2022-08-01T09:53:47;100816.94;;;31.78;52.19
3544;BME280;1786;52.870;9.578;2022-08-01T09:56:20;100819.94;;;32.19;50.51
3544;BME280;1786;52.870;9.578;2022-08-01T09:58:49;100826.22;;;32.19;50.43
3544;BME280;1786;52.870;9.578;2022-08-01T10:01:24;100821.63;;;32.31;49.75
3544;BME280;1786;52.870;9.578;2022-08-01T10:04:21;100824.19;;;32.57;51.24
3544;BME280;1786;52.870;9.578;2022-08-01T10:06:49;100826.56;;;32.76;49.41
3544;BME280;1786;52.870;9.578;2022-08-01T10:09:33;100820.25;;;31.99;48.87
3544;BME280;1786;52.870;9.578;2022-08-01T10:12:07;100818.56;;;31.98;49.55
3544;BME280;1786;52.870;9.578;2022-08-01T10:14:46;100819.78;;;32.02;50.30
3544;BME280;1786;52.870;9.578;2022-08-01T10:17:17;100820.63;;;32.14;50.88
3544;BME280;1786;52.870;9.578;2022-08-01T10:19:46;100818.41;;;32.34;51.14
3544;BME280;1786;52.870;9.578;2022-08-01T10:22:18;100820.78;;;32.19;49.02
3544;BME280;1786;52.870;9.578;2022-08-01T10:24:46;100822.94;;;32.41;48.92
3544;BME280;1786;52.870;9.578;2022-08-01T10:27:15;100824.09;;;32.21;49.30
3544;BME280;1786;52.870;9.578;2022-08-01T10:29:55;100816.22;;;32.67;46.96
3544;BME280;1786;52.870;9.578;2022-08-01T10:32:45;100824.06;;;32.87;46.73
3544;BME280;1786;52.870;9.578;2022-08-01T10:35:17;100825.16;;;33.50;48.05
3544;BME280;1786;52.870;9.578;2022-08-01T10:38:04;100828.47;;;33.92;47.37
3544;BME280;1786;52.870;9.578;2022-08-01T10:40:31;100827.28;;;33.59;45.89
3544;BME280;1786;52.870;9.578;2022-08-01T10:42:58;100830.28;;;34.03;46.83
3544;BME280;1786;52.870;9.578;2022-08-01T10:45:25;100826.75;;;33.74;47.33
3544;BME280;1786;52.870;9.578;2022-08-01T10:48:03;100810.03;;;33.47;47.20
3544;BME280;1786;52.870;9.578;2022-08-01T10:50:41;100812.63;;;33.02;47.58
3544;BME280;1786;52.870;9.578;2022-08-01T10:58:38;100816.75;;;33.68;46.70
3544;BME280;1786;52.870;9.578;2022-08-01T11:01:25;100812.19;;;34.02;44.83
3544;BME280;1786;52.870;9.578;2022-08-01T11:06:39;100811.66;;;33.89;45.36
3544;BME280;1786;52.870;9.578;2022-08-01T11:12:09;100805.56;;;33.87;45.93
3544;BME280;1786;52.870;9.578;2022-08-01T11:17:44;100808.31;;;33.87;43.15
3544;BME280;1786;52.870;9.578;2022-08-01T11:20:54;100809.06;;;34.11;43.42
3544;BME280;1786;52.870;9.578;2022-08-01T11:28:28;100798.56;;;33.50;45.49
3544;BME280;1786;52.870;9.578;2022-08-01T11:39:10;100796.41;;;34.43;45.44
3544;BME280;1786;52.870;9.578;2022-08-01T11:41:40;100794.09;;;34.35;43.76
3544;BME280;1786;52.870;9.578;2022-08-01T11:44:18;100803.06;;;34.64;43.40
3544;BME280;1786;52.870;9.578;2022-08-01T11:47:04;100798.09;;;34.61;42.17
3544;BME280;1786;52.870;9.578;2022-08-01T11:57:25;100803.53;;;35.39;42.65
3544;BME280;1786;52.870;9.578;2022-08-01T12:00:00;100811.31;;;35.69;42.07
3544;BME280;1786;52.870;9.578;2022-08-01T12:02:37;100804.25;;;35.29;43.17
3544;BME280;1786;52.870;9.578;2022-08-01T12:05:09;100802.31;;;35.08;41.35
3544;BME280;1786;52.870;9.578;2022-08-01T12:07:40;100792.19;;;34.92;42.61
3544;BME280;1786;52.870;9.578;2022-08-01T12:10:13;100803.72;;;34.55;41.34
3544;BME280;1786;52.870;9.578;2022-08-01T12:13:01;100803.00;;;34.42;42.70
3544;BME280;1786;52.870;9.578;2022-08-01T12:15:30;100806.97;;;34.35;42.44
3544;BME280;1786;52.870;9.578;2022-08-01T12:17:59;100803.06;;;34.14;42.91
3544;BME280;1786;52.870;9.578;2022-08-01T12:20:29;100811.81;;;34.61;43.89
3544;BME280;1786;52.870;9.578;2022-08-01T12:22:59;100804.56;;;34.21;41.06
3544;BME280;1786;52.870;9.578;2022-08-01T12:25:27;100809.00;;;34.22;42.26
3544;BME280;1786;52.870;9.578;2022-08-01T12:27:54;100809.56;;;34.08;44.51
3544;BME280;1786;52.870;9.578;2022-08-01T12:30:23;100822.53;;;34.29;42.28
3544;BME280;1786;52.870;9.578;2022-08-01T12:32:52;100807.97;;;34.29;43.15
3544;BME280;1786;52.870;9.578;2022-08-01T12:35:21;100803.56;;;34.44;42.43
3544;BME280;1786;52.870;9.578;2022-08-01T12:40:23;100799.66;;;33.78;43.66
3544;BME280;1786;52.870;9.578;2022-08-01T12:42:53;100820.84;;;37.43;38.24
3544;BME280;1786;52.870;9.578;2022-08-01T12:45:27;100826.66;;;39.76;36.12
3544;BME280;1786;52.870;9.578;2022-08-01T12:47:55;100821.38;;;39.35;35.41
3544;BME280;1786;52.870;9.578;2022-08-01T12:50:26;100822.56;;;39.08;36.12
3544;BME280;1786;52.870;9.578;2022-08-01T12:52:54;100822.34;;;38.94;36.23
3544;BME280;1786;52.870;9.578;2022-08-01T12:55:22;100818.63;;;39.25;36.30
3544;BME280;1786;52.870;9.578;2022-08-01T12:58:08;100817.78;;;39.40;36.62
3544;BME280;1786;52.870;9.578;2022-08-01T13:00:43;100824.75;;;40.16;35.87
3544;BME280;1786;52.870;9.578;2022-08-01T13:03:13;100820.00;;;39.27;36.87
3544;BME280;1786;52.870;9.578;2022-08-01T13:05:48;100824.59;;;40.36;35.57
3544;BME280;1786;52.870;9.578;2022-08-01T13:08:19;100830.19;;;40.31;35.28
3544;BME280;1786;52.870;9.578;2022-08-01T13:10:47;100833.75;;;39.97;35.58
3544;BME280;1786;52.870;9.578;2022-08-01T13:13:17;100833.94;;;39.67;35.96
3544;BME280;1786;52.870;9.578;2022-08-01T13:16:03;100840.78;;;39.85;34.14
3544;BME280;1786;52.870;9.578;2022-08-01T13:18:32;100845.75;;;39.17;35.83
3544;BME280;1786;52.870;9.578;2022-08-01T13:21:20;100839.25;;;38.62;35.63
3544;BME280;1786;52.870;9.578;2022-08-01T13:24:10;100838.09;;;38.84;35.16
3544;BME280;1786;52.870;9.578;2022-08-01T13:29:12;100843.66;;;38.53;37.41
3544;BME280;1786;52.870;9.578;2022-08-01T13:31:41;100838.13;;;38.79;35.96
3544;BME280;1786;52.870;9.578;2022-08-01T13:34:08;100841.44;;;38.35;36.58
3544;BME280;1786;52.870;9.578;2022-08-01T13:36:35;100840.09;;;38.52;35.49
3544;BME280;1786;52.870;9.578;2022-08-01T13:39:02;100838.00;;;39.25;35.44
3544;BME280;1786;52.870;9.578;2022-08-01T13:41:48;100844.47;;;38.74;36.77
3544;BME280;1786;52.870;9.578;2022-08-01T13:44:15;100843.66;;;38.73;35.68
3544;BME280;1786;52.870;9.578;2022-08-01T13:46:43;100843.38;;;38.75;36.04
3544;BME280;1786;52.870;9.578;2022-08-01T13:49:16;100849.72;;;38.40;36.71
3544;BME280;1786;52.870;9.578;2022-08-01T13:51:44;100843.59;;;37.81;36.42
3544;BME280;1786;52.870;9.578;2022-08-01T13:54:12;100847.72;;;37.84;37.11
3544;BME280;1786;52.870;9.578;2022-08-01T13:56:39;100843.50;;;37.51;38.12
3544;BME280;1786;52.870;9.578;2022-08-01T13:59:05;100847.53;;;38.01;37.71
3544;BME280;1786;52.870;9.578;2022-08-01T14:01:33;100837.88;;;38.39;37.17
3544;BME280;1786;52.870;9.578;2022-08-01T14:04:01;100834.22;;;37.87;35.99
3544;BME280;1786;52.870;9.578;2022-08-01T14:06:27;100848.09;;;38.23;36.65
3544;BME280;1786;52.870;9.578;2022-08-01T14:08:54;100853.06;;;38.52;36.82
3544;BME280;1786;52.870;9.578;2022-08-01T14:11:21;100854.97;;;38.77;36.65
3544;BME280;1786;52.870;9.578;2022-08-01T14:13:47;100848.41;;;39.48;35.02
3544;BME280;1786;52.870;9.578;2022-08-01T14:16:16;100849.47;;;38.67;36.28
3544;BME280;1786;52.870;9.578;2022-08-01T14:18:43;100857.47;;;38.38;35.61
3544;BME280;1786;52.870;9.578;2022-08-01T14:21:10;100851.28;;;37.69;35.23
3544;BME280;1786;52.870;9.578;2022-08-01T14:23:37;100848.34;;;38.01;35.71